Terminal Aerodrome Forecast
Issued by NWS Boston, MA

Home | Current Version | Previous Version | Text Only | Print | Product List | Glossary On
Versions: 1 2 3 4 5 6 7 8 9 10 11 12 13 14 15 16 17 18 19 20 21 22 23 24 25 26 27 28 29 30 31 32 33 34
202
FTUS41 KBOX 031124
TAFORH
TAF
KORH 031124Z 0312/0412 00000KT 2SM -RA BR OVC004
     FM031600 VRB03KT 5SM BR VCSH OVC008
     FM031900 VRB03KT 6SM BR VCSH OVC010
     FM032200 VRB03KT 6SM BR VCSH OVC020
     FM040000 VRB03KT 6SM BR VCSH BKN030
     FM040200 VRB05KT P6SM VCSH BKN045=

USA.gov is the U.S. government's official web portal to all federal, state and local government web resources and services.